createdAt,value
2019-04-21T00:00:15.097Z,1022.95
2019-04-21T00:01:12.571Z,1022.97
2019-04-21T00:02:14.803Z,1022.91
2019-04-21T00:03:19.304Z,1022.95
2019-04-21T00:04:24.745Z,1022.95
2019-04-21T00:05:37.336Z,1022.96
2019-04-21T00:06:32.198Z,1022.98
2019-04-21T00:07:31.562Z,1022.96
2019-04-21T00:08:39.523Z,1022.93
2019-04-21T00:09:34.356Z,1022.96
2019-04-21T00:10:33.531Z,1022.93
2019-04-21T00:11:29.803Z,1022.91
2019-04-21T00:12:28.465Z,1022.92
2019-04-21T00:13:31.296Z,1022.92
2019-04-21T00:14:22.084Z,1022.93
2019-04-21T00:15:20.208Z,1022.94
2019-04-21T00:16:14.142Z,1022.92
2019-04-21T00:17:15.638Z,1022.94
2019-04-21T00:18:12.275Z,1022.89
2019-04-21T00:19:18.162Z,1022.88
2019-04-21T00:20:22.708Z,1022.87
2019-04-21T00:21:22.539Z,1022.87
2019-04-21T00:22:23.286Z,1022.89
2019-04-21T00:23:31.489Z,1022.91
2019-04-21T00:24:28.952Z,1022.87
2019-04-21T00:25:24.885Z,1022.89
2019-04-21T00:26:31.807Z,1022.90
2019-04-21T00:27:28.079Z,1022.85
2019-04-21T00:28:36.268Z,1022.85
2019-04-21T00:29:33.887Z,1022.83
2019-04-21T00:30:36.726Z,1022.85
2019-04-21T00:31:32.366Z,1022.84
2019-04-21T00:32:25.684Z,1022.84
2019-04-21T00:33:18.864Z,1022.82
2019-04-21T00:34:11.397Z,1022.85
2019-04-21T00:35:15.886Z,1022.82
2019-04-21T00:36:18.578Z,1022.79
2019-04-21T00:37:21.642Z,1022.79
2019-04-21T00:38:32.381Z,1022.77
2019-04-21T00:40:37.736Z,1022.77
2019-04-21T00:41:34.004Z,1022.70
2019-04-21T00:42:29.082Z,1022.68
2019-04-21T00:43:30.674Z,1022.69
2019-04-21T00:44:21.498Z,1022.67
2019-04-21T00:45:23.598Z,1022.70
2019-04-21T00:46:28.747Z,1022.68
2019-04-21T00:47:34.067Z,1022.67
2019-04-21T00:48:36.430Z,1022.64
2019-04-21T00:49:27.128Z,1022.66
2019-04-21T00:50:40.788Z,1022.64
2019-04-21T00:51:40.913Z,1022.65
2019-04-21T00:52:47.531Z,1022.62
2019-04-21T00:53:48.419Z,1022.60
2019-04-21T00:54:42.344Z,1022.61
2019-04-21T00:55:38.495Z,1022.60
2019-04-21T00:56:34.163Z,1022.57
2019-04-21T00:57:41.331Z,1022.55
2019-04-21T00:58:33.109Z,1022.57
2019-04-21T00:59:33.518Z,1022.55
2019-04-21T01:00:32.588Z,1022.55
2019-04-21T01:01:31.211Z,1022.55
2019-04-21T01:02:41.343Z,1022.52
2019-04-21T01:03:43.513Z,1022.54
2019-04-21T01:04:36.866Z,1022.55
2019-04-21T01:05:39.844Z,1022.53
2019-04-21T01:06:36.900Z,1022.54
2019-04-21T01:07:31.984Z,1022.55
2019-04-21T01:08:31.088Z,1022.55
2019-04-21T01:09:30.145Z,1022.56
2019-04-21T01:10:24.178Z,1022.57
2019-04-21T01:11:35.102Z,1022.58
2019-04-21T01:12:37.681Z,1022.54
2019-04-21T01:13:45.395Z,1022.54
2019-04-21T01:14:46.888Z,1022.58
2019-04-21T01:15:37.541Z,1022.54
2019-04-21T01:16:39.327Z,1022.57
2019-04-21T01:17:35.599Z,1022.54
2019-04-21T01:18:32.629Z,1022.52
2019-04-21T01:19:33.205Z,1022.50
2019-04-21T01:20:17.174Z,1022.51
2019-04-21T01:21:14.225Z,1022.54
2019-04-21T01:22:12.922Z,1022.51
2019-04-21T01:23:12.956Z,1022.50
2019-04-21T01:24:19.694Z,1022.51
2019-04-21T01:25:22.887Z,1022.51
2019-04-21T01:26:22.622Z,1022.48
2019-04-21T01:27:26.297Z,1022.53
2019-04-21T01:28:28.995Z,1022.53
2019-04-21T01:29:36.901Z,1022.49
2019-04-21T01:30:35.370Z,1022.53
2019-04-21T01:31:30.003Z,1022.58
2019-04-21T01:32:34.396Z,1022.55
2019-04-21T01:33:38.198Z,1022.49
2019-04-21T01:34:37.220Z,1022.50
2019-04-21T01:35:35.437Z,1022.48
2019-04-21T01:36:33.329Z,1022.48
2019-04-21T01:37:42.194Z,1022.44
2019-04-21T01:38:53.765Z,1022.42
2019-04-21T01:39:35.033Z,1022.41
2019-04-21T01:40:34.788Z,1022.36
2019-04-21T01:41:41.342Z,1022.36
2019-04-21T01:42:33.395Z,1022.37
2019-04-21T01:43:27.781Z,1022.38
2019-04-21T01:44:36.215Z,1022.34
2019-04-21T01:45:35.569Z,1022.40
2019-04-21T01:46:29.659Z,1022.40
2019-04-21T01:47:32.282Z,1022.39
2019-04-21T01:48:33.332Z,1022.39
2019-04-21T01:49:28.613Z,1022.37
2019-04-21T01:50:29.554Z,1022.37
2019-04-21T01:51:28.146Z,1022.34
2019-04-21T01:52:43.874Z,1022.40
2019-04-21T01:53:38.212Z,1022.36
2019-04-21T01:54:35.338Z,1022.31
2019-04-21T01:55:36.679Z,1022.34
2019-04-21T01:56:37.061Z,1022.31
2019-04-21T01:57:29.420Z,1022.31
2019-04-21T01:58:27.060Z,1022.33
2019-04-21T01:59:27.828Z,1022.32
2019-04-21T02:00:35.064Z,1022.29
2019-04-21T02:01:33.549Z,1022.31
2019-04-21T02:02:36.621Z,1022.30
2019-04-21T02:03:54.468Z,1022.30
2019-04-21T02:04:41.794Z,1022.29
2019-04-21T02:05:37.528Z,1022.29
2019-04-21T02:06:37.789Z,1022.28
2019-04-21T02:07:34.245Z,1022.32
2019-04-21T02:08:34.039Z,1022.32
2019-04-21T02:09:33.185Z,1022.30
2019-04-21T02:10:41.480Z,1022.29
2019-04-21T02:11:35.512Z,1022.31
2019-04-21T02:12:40.560Z,1022.29
2019-04-21T02:13:35.532Z,1022.28
2019-04-21T02:14:40.908Z,1022.30
2019-04-21T02:15:41.963Z,1022.31
2019-04-21T02:16:34.622Z,1022.32
2019-04-21T02:17:38.680Z,1022.29
2019-04-21T02:18:33.475Z,1022.31
2019-04-21T02:19:31.607Z,1022.32
2019-04-21T02:20:26.953Z,1022.28
2019-04-21T02:21:31.915Z,1022.31
2019-04-21T02:22:46.453Z,1022.29
2019-04-21T02:23:38.213Z,1022.26
2019-04-21T02:24:45.149Z,1022.28
2019-04-21T02:25:40.043Z,1022.25
2019-04-21T02:26:47.172Z,1022.29
2019-04-21T02:27:41.190Z,1022.26
2019-04-21T02:28:42.715Z,1022.28
2019-04-21T02:29:42.685Z,1022.27
2019-04-21T02:30:55.167Z,1022.31
2019-04-21T02:31:48.481Z,1022.30
2019-04-21T02:32:48.348Z,1022.29
2019-04-21T02:34:02.660Z,1022.27
2019-04-21T02:34:52.872Z,1022.28
2019-04-21T02:35:55.936Z,1022.23
2019-04-21T02:36:52.925Z,1022.23
2019-04-21T02:37:55.169Z,1022.22
2019-04-21T02:39:00.291Z,1022.22
2019-04-21T02:39:48.930Z,1022.24
2019-04-21T02:40:46.518Z,1022.21
2019-04-21T02:41:50.541Z,1022.22
2019-04-21T02:45:03.907Z,1022.19
2019-04-21T02:45:51.819Z,1022.17
2019-04-21T02:48:59.805Z,1022.15
2019-04-21T02:49:56.485Z,1022.16
2019-04-21T02:50:47.594Z,1022.13
2019-04-21T02:51:54.415Z,1022.17
2019-04-21T02:54:24.999Z,1022.18
2019-04-21T02:55:44.666Z,1022.16
2019-04-21T02:57:51.893Z,1022.15
2019-04-21T02:58:52.915Z,1022.11
2019-04-21T03:00:42.787Z,1022.08
2019-04-21T03:01:49.047Z,1022.05
2019-04-21T03:03:41.777Z,1022.04
2019-04-21T03:05:05.210Z,1022.01
2019-04-21T03:06:59.404Z,1022.00
2019-04-21T03:07:55.390Z,1022.00
2019-04-21T03:08:50.386Z,1021.96
2019-04-21T03:09:44.841Z,1021.98
2019-04-21T03:11:52.884Z,1021.92
2019-04-21T03:12:59.750Z,1021.95
2019-04-21T03:13:50.650Z,1021.93
2019-04-21T03:14:56.434Z,1021.95
2019-04-21T03:15:55.603Z,1021.88
2019-04-21T03:16:49.328Z,1021.88
2019-04-21T03:17:54.984Z,1021.86
2019-04-21T03:19:50.076Z,1021.87
2019-04-21T03:20:53.309Z,1021.85
2019-04-21T03:21:52.405Z,1021.85
2019-04-21T03:25:52.101Z,1021.81
2019-04-21T03:29:05.878Z,1021.82
2019-04-21T03:36:19.020Z,1021.76
2019-04-21T03:37:43.210Z,1021.77
2019-04-21T03:38:41.037Z,1021.76
2019-04-21T03:39:50.334Z,1021.77
2019-04-21T03:40:54.971Z,1021.78
2019-04-21T03:42:07.491Z,1021.72
2019-04-21T03:42:54.984Z,1021.72
2019-04-21T03:44:45.348Z,1021.70
2019-04-21T03:45:46.563Z,1021.74
2019-04-21T03:46:53.092Z,1021.72
2019-04-21T03:47:49.176Z,1021.72
2019-04-21T03:52:53.434Z,1021.73
2019-04-21T03:53:46.461Z,1021.73
2019-04-21T03:54:56.493Z,1021.70
2019-04-21T03:58:55.903Z,1021.70
2019-04-21T03:59:55.646Z,1021.72
2019-04-21T04:00:59.499Z,1021.71
2019-04-21T04:01:48.893Z,1021.71
2019-04-21T04:02:55.139Z,1021.80
2019-04-21T04:06:03.380Z,1021.74
2019-04-21T04:06:55.608Z,1021.79
2019-04-21T04:07:59.220Z,1021.76
2019-04-21T04:09:09.229Z,1021.74
2019-04-21T04:09:54.073Z,1021.73
2019-04-21T04:10:51.941Z,1021.72
2019-04-21T04:12:52.894Z,1021.72
2019-04-21T04:13:55.605Z,1021.71
2019-04-21T04:16:01.823Z,1021.71
2019-04-21T04:17:49.914Z,1021.70
2019-04-21T04:18:53.108Z,1021.68
2019-04-21T04:19:48.549Z,1021.69
2019-04-21T04:20:51.751Z,1021.68
2019-04-21T04:23:55.453Z,1021.64
2019-04-21T04:25:07.465Z,1021.63
2019-04-21T04:25:53.612Z,1021.64
2019-04-21T04:26:47.527Z,1021.66
2019-04-21T04:27:59.948Z,1021.65
2019-04-21T04:29:51.305Z,1021.69
2019-04-21T04:30:53.799Z,1021.69
2019-04-21T04:31:45.628Z,1021.70
2019-04-21T04:33:08.053Z,1021.72
2019-04-21T04:33:57.775Z,1021.73
2019-04-21T04:38:03.367Z,1021.71
2019-04-21T04:39:02.191Z,1021.71
2019-04-21T04:39:57.063Z,1021.73
2019-04-21T04:41:02.874Z,1021.72
2019-04-21T04:41:55.044Z,1021.68
2019-04-21T04:43:55.243Z,1021.68
2019-04-21T04:47:51.299Z,1021.75
2019-04-21T04:48:59.396Z,1021.74
2019-04-21T04:52:09.632Z,1021.74
2019-04-21T04:52:44.109Z,1021.72
2019-04-21T04:53:48.787Z,1021.73
2019-04-21T04:55:46.123Z,1021.71
2019-04-21T04:56:56.343Z,1021.68
2019-04-21T04:59:19.329Z,1021.67
2019-04-21T04:59:50.214Z,1021.69
2019-04-21T05:01:00.368Z,1021.68
2019-04-21T05:02:52.304Z,1021.68
2019-04-21T05:04:02.642Z,1021.72
2019-04-21T05:04:55.184Z,1021.73
2019-04-21T05:06:00.842Z,1021.70
2019-04-21T05:08:08.323Z,1021.73
2019-04-21T05:09:10.886Z,1021.71
2019-04-21T05:10:59.063Z,1021.64
2019-04-21T05:12:44.249Z,1021.66
2019-04-21T05:13:55.043Z,1021.59
2019-04-21T05:15:50.518Z,1021.60
2019-04-21T05:16:54.883Z,1021.60
2019-04-21T05:18:52.802Z,1021.62
2019-04-21T05:20:05.461Z,1021.65
2019-04-21T05:20:52.647Z,1021.62
2019-04-21T05:22:05.510Z,1021.59
2019-04-21T05:22:44.914Z,1021.63
2019-04-21T05:23:45.659Z,1021.58
2019-04-21T05:24:37.935Z,1021.59
2019-04-21T05:25:38.830Z,1021.59
2019-04-21T05:26:39.231Z,1021.56
2019-04-21T05:27:33.563Z,1021.58
2019-04-21T05:28:32.879Z,1021.59
2019-04-21T05:29:49.549Z,1021.60
2019-04-21T05:30:50.063Z,1021.58
2019-04-21T05:31:44.593Z,1021.56
2019-04-21T05:32:45.169Z,1021.58
2019-04-21T05:33:49.556Z,1021.55
2019-04-21T05:34:38.966Z,1021.54
2019-04-21T05:35:43.826Z,1021.54
2019-04-21T05:36:48.977Z,1021.55
2019-04-21T05:37:43.437Z,1021.57
2019-04-21T05:38:39.149Z,1021.57
2019-04-21T05:39:37.774Z,1021.57
2019-04-21T05:40:35.883Z,1021.58
2019-04-21T05:41:31.282Z,1021.59
2019-04-21T05:42:36.839Z,1021.59
2019-04-21T05:43:39.834Z,1021.61
2019-04-21T05:44:52.853Z,1021.61
2019-04-21T05:45:46.025Z,1021.61
2019-04-21T05:46:50.666Z,1021.59
2019-04-21T05:47:50.113Z,1021.63
2019-04-21T05:48:39.162Z,1021.63
2019-04-21T05:49:38.696Z,1021.63
2019-04-21T05:50:37.772Z,1021.65
2019-04-21T05:51:41.152Z,1021.63
2019-04-21T05:52:33.954Z,1021.63
2019-04-21T05:53:40.477Z,1021.67
2019-04-21T05:54:52.872Z,1021.65
2019-04-21T05:56:08.565Z,1021.66
2019-04-21T05:56:42.359Z,1021.64
2019-04-21T05:57:38.423Z,1021.60
2019-04-21T05:58:43.619Z,1021.63
2019-04-21T05:59:43.748Z,1021.63
2019-04-21T06:00:59.186Z,1021.65
2019-04-21T06:01:48.587Z,1021.61
2019-04-21T06:02:51.000Z,1021.65
2019-04-21T06:05:53.352Z,1021.61
2019-04-21T06:06:53.797Z,1021.68
2019-04-21T06:07:41.521Z,1021.63
2019-04-21T06:08:42.287Z,1021.64
2019-04-21T06:09:52.558Z,1021.66
2019-04-21T06:10:49.514Z,1021.64
2019-04-21T06:11:47.533Z,1021.64
2019-04-21T06:12:52.205Z,1021.62
2019-04-21T06:13:51.622Z,1021.59
2019-04-21T06:14:49.477Z,1021.62
2019-04-21T06:15:50.297Z,1021.60
2019-04-21T06:16:49.417Z,1021.55
2019-04-21T06:17:49.543Z,1021.58
2019-04-21T06:18:47.061Z,1021.62
2019-04-21T06:19:52.788Z,1021.57
2019-04-21T06:20:46.797Z,1021.58
2019-04-21T06:21:47.851Z,1021.60
2019-04-21T06:22:48.982Z,1021.62
2019-04-21T06:23:41.980Z,1021.60
2019-04-21T06:24:54.666Z,1021.61
2019-04-21T06:25:54.539Z,1021.59
2019-04-21T06:27:04.938Z,1021.62
2019-04-21T06:27:49.476Z,1021.65
2019-04-21T06:28:46.753Z,1021.62
2019-04-21T06:29:43.898Z,1021.66
2019-04-21T06:30:53.058Z,1021.66
2019-04-21T06:33:52.009Z,1021.69
2019-04-21T06:34:59.806Z,1021.69
2019-04-21T06:36:08.992Z,1021.67
2019-04-21T06:36:47.413Z,1021.69
2019-04-21T06:38:58.224Z,1021.66
2019-04-21T06:40:50.162Z,1021.67
2019-04-21T06:41:37.947Z,1021.67
2019-04-21T06:42:50.255Z,1021.66
2019-04-21T06:44:01.418Z,1021.64
2019-04-21T06:44:54.300Z,1021.62
2019-04-21T06:45:50.719Z,1021.64
2019-04-21T06:46:59.320Z,1021.62
2019-04-21T06:48:06.292Z,1021.64
2019-04-21T06:48:49.766Z,1021.59
2019-04-21T06:49:46.786Z,1021.59
2019-04-21T06:50:52.830Z,1021.61
2019-04-21T06:51:45.530Z,1021.60
2019-04-21T06:53:57.800Z,1021.56
2019-04-21T06:54:49.525Z,1021.58
2019-04-21T06:55:44.827Z,1021.59
2019-04-21T06:56:45.055Z,1021.62
2019-04-21T06:57:43.169Z,1021.61
2019-04-21T06:58:45.031Z,1021.60
2019-04-21T06:59:43.611Z,1021.64
2019-04-21T07:00:42.435Z,1021.58
2019-04-21T07:01:55.240Z,1021.58
2019-04-21T07:02:54.931Z,1021.59
2019-04-21T07:03:49.370Z,1021.58
2019-04-21T07:04:50.438Z,1021.61
2019-04-21T07:05:52.452Z,1021.59
2019-04-21T07:06:50.154Z,1021.58
2019-04-21T07:07:57.688Z,1021.55
2019-04-21T07:08:55.120Z,1021.59
2019-04-21T07:09:52.974Z,1021.59
2019-04-21T07:10:48.781Z,1021.55
2019-04-21T07:11:43.825Z,1021.59
2019-04-21T07:12:46.518Z,1021.59
2019-04-21T07:13:49.032Z,1021.60
2019-04-21T07:14:43.894Z,1021.59
2019-04-21T07:15:43.519Z,1021.61
2019-04-21T07:16:51.463Z,1021.63
2019-04-21T07:17:45.522Z,1021.65
2019-04-21T07:18:56.599Z,1021.63
2019-04-21T07:19:49.975Z,1021.65
2019-04-21T07:20:49.153Z,1021.68
2019-04-21T07:21:50.140Z,1021.69
2019-04-21T07:22:47.872Z,1021.65
2019-04-21T07:23:57.241Z,1021.63
2019-04-21T07:24:45.829Z,1021.64
2019-04-21T07:25:45.826Z,1021.64
2019-04-21T07:26:51.253Z,1021.63
2019-04-21T07:27:49.485Z,1021.60
2019-04-21T07:28:49.915Z,1021.62
2019-04-21T07:29:50.597Z,1021.63
2019-04-21T07:30:57.564Z,1021.59
2019-04-21T07:32:47.400Z,1021.61
2019-04-21T07:34:14.029Z,1021.60
2019-04-21T07:34:49.457Z,1021.59
2019-04-21T07:35:43.240Z,1021.59
2019-04-21T07:36:52.143Z,1021.57
2019-04-21T07:37:49.276Z,1021.56
2019-04-21T07:38:45.833Z,1021.53
2019-04-21T07:39:45.062Z,1021.52
2019-04-21T07:40:40.544Z,1021.48
2019-04-21T07:41:42.448Z,1021.48
2019-04-21T07:42:43.935Z,1021.48
2019-04-21T07:43:38.013Z,1021.47
2019-04-21T07:44:43.535Z,1021.47
2019-04-21T07:45:43.192Z,1021.47
2019-04-21T07:46:38.627Z,1021.47
2019-04-21T07:47:46.011Z,1021.44
2019-04-21T07:48:46.121Z,1021.42
2019-04-21T07:49:46.625Z,1021.38
2019-04-21T07:50:46.931Z,1021.38
2019-04-21T07:51:52.104Z,1021.36
2019-04-21T07:52:52.148Z,1021.39
2019-04-21T07:53:52.580Z,1021.38
2019-04-21T07:55:03.291Z,1021.43
2019-04-21T07:56:33.919Z,1021.37
2019-04-21T07:57:37.588Z,1021.37
2019-04-21T07:58:53.581Z,1021.36
2019-04-21T07:59:55.193Z,1021.35
2019-04-21T08:01:45.358Z,1021.35
2019-04-21T08:02:49.156Z,1021.31
2019-04-21T08:03:45.389Z,1021.33
2019-04-21T08:05:47.161Z,1021.26
2019-04-21T08:06:47.749Z,1021.25
2019-04-21T08:07:57.153Z,1021.27
2019-04-21T08:08:48.955Z,1021.23
2019-04-21T08:10:44.179Z,1021.25
2019-04-21T08:11:44.279Z,1021.24
2019-04-21T08:12:43.274Z,1021.23
2019-04-21T08:13:55.108Z,1021.24
2019-04-21T08:14:45.158Z,1021.21
2019-04-21T08:15:49.420Z,1021.19
2019-04-21T08:16:51.191Z,1021.21
2019-04-21T08:17:47.175Z,1021.24
2019-04-21T08:18:45.460Z,1021.22
2019-04-21T08:19:43.357Z,1021.16
2019-04-21T08:20:45.916Z,1021.21
2019-04-21T08:21:54.625Z,1021.21
2019-04-21T08:23:43.123Z,1021.14
2019-04-21T08:24:50.819Z,1021.16
2019-04-21T08:25:52.956Z,1021.11
2019-04-21T08:26:53.178Z,1021.15
2019-04-21T08:27:54.024Z,1021.15
2019-04-21T08:28:49.493Z,1021.10
2019-04-21T08:29:47.684Z,1021.09
2019-04-21T08:30:42.496Z,1021.12
2019-04-21T08:34:19.884Z,1021.10
2019-04-21T08:34:55.950Z,1021.08
2019-04-21T08:36:47.186Z,1021.05
2019-04-21T08:37:43.271Z,1021.07
2019-04-21T08:38:48.405Z,1021.08
2019-04-21T08:39:58.078Z,1021.03
2019-04-21T08:41:03.646Z,1021.05
2019-04-21T08:41:45.270Z,1021.03
2019-04-21T08:42:45.061Z,1021.06
2019-04-21T08:43:44.603Z,1021.02
2019-04-21T08:44:46.663Z,1021.01
2019-04-21T08:45:48.199Z,1021.06
2019-04-21T08:46:49.221Z,1021.06
2019-04-21T08:47:45.863Z,1021.03
2019-04-21T08:48:53.018Z,1021.04
2019-04-21T08:49:52.469Z,1021.01
2019-04-21T08:50:53.874Z,1020.99
2019-04-21T08:51:51.984Z,1020.99
2019-04-21T08:52:52.227Z,1020.97
2019-04-21T08:54:51.542Z,1020.96
2019-04-21T08:55:48.997Z,1020.92
2019-04-21T08:56:49.559Z,1020.92
2019-04-21T08:58:05.201Z,1020.92
2019-04-21T08:58:54.676Z,1020.90
2019-04-21T08:59:50.657Z,1020.88
2019-04-21T09:00:48.913Z,1020.90
2019-04-21T09:01:48.856Z,1020.92
2019-04-21T09:02:47.381Z,1020.93
2019-04-21T09:03:52.098Z,1020.91
2019-04-21T09:04:45.844Z,1020.93
2019-04-21T09:05:53.945Z,1020.86
2019-04-21T09:06:58.684Z,1020.89
2019-04-21T09:07:53.692Z,1020.91
2019-04-21T09:08:46.277Z,1020.91
2019-04-21T09:09:47.579Z,1020.90
2019-04-21T09:10:47.319Z,1020.83
2019-04-21T09:11:49.916Z,1020.87
2019-04-21T09:12:46.607Z,1020.85
2019-04-21T09:13:47.762Z,1020.87
2019-04-21T09:14:48.811Z,1020.83
2019-04-21T09:15:44.837Z,1020.80
2019-04-21T09:16:42.628Z,1020.78
2019-04-21T09:17:43.178Z,1020.77
2019-04-21T09:18:41.543Z,1020.76
2019-04-21T09:20:07.994Z,1020.78
2019-04-21T09:20:52.582Z,1020.75
2019-04-21T09:21:51.106Z,1020.72
2019-04-21T09:22:50.639Z,1020.69
2019-04-21T09:23:45.270Z,1020.72
2019-04-21T09:24:46.831Z,1020.73
2019-04-21T09:26:40.667Z,1020.71
2019-04-21T09:27:47.108Z,1020.67
2019-04-21T09:28:40.406Z,1020.66
2019-04-21T09:29:36.749Z,1020.67
2019-04-21T09:30:30.726Z,1020.67
2019-04-21T09:31:33.869Z,1020.60
2019-04-21T09:32:32.561Z,1020.60
2019-04-21T09:33:35.680Z,1020.53
2019-04-21T09:34:34.556Z,1020.54
2019-04-21T09:35:29.149Z,1020.52
2019-04-21T09:36:35.042Z,1020.56
2019-04-21T09:37:40.834Z,1020.47
2019-04-21T09:38:36.525Z,1020.51
2019-04-21T09:39:31.449Z,1020.50
2019-04-21T09:40:34.640Z,1020.49
2019-04-21T09:41:30.060Z,1020.47
2019-04-21T09:42:35.944Z,1020.46
2019-04-21T09:43:37.724Z,1020.46
2019-04-21T09:44:36.097Z,1020.43
2019-04-21T09:45:30.640Z,1020.42
2019-04-21T09:46:29.880Z,1020.36
2019-04-21T09:47:37.998Z,1020.40
2019-04-21T09:48:43.746Z,1020.35
2019-04-21T09:49:31.666Z,1020.36
2019-04-21T09:50:29.555Z,1020.35
2019-04-21T09:51:30.465Z,1020.32
2019-04-21T09:52:38.947Z,1020.29
2019-04-21T09:53:34.474Z,1020.30
2019-04-21T09:54:33.341Z,1020.28
2019-04-21T09:55:39.574Z,1020.24
2019-04-21T09:56:39.504Z,1020.25
2019-04-21T09:57:40.438Z,1020.23
2019-04-21T09:58:37.977Z,1020.22
2019-04-21T09:59:35.575Z,1020.18
2019-04-21T10:00:36.244Z,1020.16
2019-04-21T10:01:47.811Z,1020.13
2019-04-21T10:02:37.611Z,1020.14
2019-04-21T10:03:37.133Z,1020.17
2019-04-21T10:04:31.027Z,1020.14
2019-04-21T10:05:29.852Z,1020.09
2019-04-21T10:06:30.659Z,1020.12
2019-04-21T10:07:35.602Z,1020.12
2019-04-21T10:08:29.965Z,1020.12
2019-04-21T10:09:31.051Z,1020.13
2019-04-21T10:10:30.043Z,1020.08
2019-04-21T10:11:31.121Z,1020.09
2019-04-21T10:12:30.669Z,1020.09
2019-04-21T10:13:30.155Z,1020.13
2019-04-21T10:14:30.915Z,1020.09
2019-04-21T10:15:30.231Z,1020.10
2019-04-21T10:16:30.276Z,1020.02
2019-04-21T10:17:30.308Z,1020.03
2019-04-21T10:18:31.644Z,1020.05
2019-04-21T10:19:31.593Z,1019.98
2019-04-21T10:20:30.876Z,1020.02
2019-04-21T10:21:31.601Z,1019.97
2019-04-21T10:22:31.004Z,1019.97
2019-04-21T10:23:31.610Z,1019.93
2019-04-21T10:24:30.693Z,1019.98
2019-04-21T10:25:30.740Z,1019.94
2019-04-21T10:26:30.669Z,1019.90
2019-04-21T10:27:31.517Z,1019.86
2019-04-21T10:28:30.981Z,1019.85
2019-04-21T10:29:32.991Z,1019.85
2019-04-21T10:30:30.809Z,1019.80
2019-04-21T10:31:30.846Z,1019.76
2019-04-21T10:32:32.276Z,1019.76
2019-04-21T10:33:30.924Z,1019.76
2019-04-21T10:34:31.484Z,1019.76
2019-04-21T10:35:31.214Z,1019.74
2019-04-21T10:36:31.060Z,1019.72
2019-04-21T10:37:42.818Z,1019.77
2019-04-21T10:38:38.005Z,1019.75
2019-04-21T10:39:31.606Z,1019.69
2019-04-21T10:40:33.834Z,1019.71
2019-04-21T10:41:31.235Z,1019.67
2019-04-21T10:42:31.329Z,1019.64
2019-04-21T10:43:31.328Z,1019.63
2019-04-21T10:44:31.556Z,1019.63
2019-04-21T10:45:32.697Z,1019.59
2019-04-21T10:46:32.867Z,1019.62
2019-04-21T10:47:31.469Z,1019.59
2019-04-21T10:48:34.370Z,1019.59
2019-04-21T10:49:32.663Z,1019.60
2019-04-21T10:50:31.607Z,1019.59
2019-04-21T10:51:32.806Z,1019.58
2019-04-21T10:52:32.906Z,1019.56
2019-04-21T10:53:31.705Z,1019.54
2019-04-21T10:54:49.133Z,1019.54
2019-04-21T10:55:44.604Z,1019.52
2019-04-21T10:56:37.997Z,1019.55
2019-04-21T10:57:32.671Z,1019.52
2019-04-21T10:58:32.248Z,1019.49
2019-04-21T10:59:33.127Z,1019.48
2019-04-21T11:00:32.383Z,1019.48
2019-04-21T11:01:32.021Z,1019.46
2019-04-21T11:02:32.908Z,1019.46
2019-04-21T11:03:33.191Z,1019.46
2019-04-21T11:04:36.439Z,1019.44
2019-04-21T11:05:32.623Z,1019.39
2019-04-21T11:06:32.619Z,1019.35
2019-04-21T11:07:38.990Z,1019.34
2019-04-21T11:08:37.858Z,1019.30
2019-04-21T11:09:33.854Z,1019.36
2019-04-21T11:10:32.373Z,1019.33
2019-04-21T11:11:32.413Z,1019.32
2019-04-21T11:12:33.452Z,1019.31
2019-04-21T11:13:32.661Z,1019.28
2019-04-21T11:14:33.451Z,1019.28
2019-04-21T11:15:32.784Z,1019.27
2019-04-21T11:16:33.219Z,1019.22
2019-04-21T11:17:32.654Z,1019.21
2019-04-21T11:18:33.966Z,1019.18
2019-04-21T11:19:32.853Z,1019.16
2019-04-21T11:20:33.058Z,1019.17
2019-04-21T11:21:32.810Z,1019.14
2019-04-21T11:22:34.946Z,1019.14
2019-04-21T11:23:33.190Z,1019.11
2019-04-21T11:24:33.341Z,1019.13
2019-04-21T11:25:33.725Z,1019.10
2019-04-21T11:26:33.819Z,1019.08
2019-04-21T11:27:33.210Z,1019.06
2019-04-21T11:28:34.506Z,1019.05
2019-04-21T11:29:33.175Z,1019.05
2019-04-21T11:30:33.709Z,1019.06
2019-04-21T11:31:33.454Z,1019.01
2019-04-21T11:32:33.249Z,1018.99
2019-04-21T11:33:33.424Z,1019.02
2019-04-21T11:34:33.504Z,1019.03
2019-04-21T11:35:33.366Z,1019.01
2019-04-21T11:36:33.406Z,1018.99
2019-04-21T11:37:34.631Z,1018.98
2019-04-21T11:38:44.727Z,1018.98
2019-04-21T11:39:42.247Z,1018.97
2019-04-21T11:40:34.023Z,1018.96
2019-04-21T11:41:34.001Z,1018.92
2019-04-21T11:42:33.667Z,1018.93
2019-04-21T11:43:34.973Z,1018.96
2019-04-21T11:44:35.186Z,1018.92
2019-04-21T11:45:34.692Z,1018.90
2019-04-21T11:46:34.214Z,1018.90
2019-04-21T11:47:34.265Z,1018.92
2019-04-21T11:48:34.540Z,1018.91
2019-04-21T11:49:34.831Z,1018.92
2019-04-21T11:50:35.073Z,1018.89
2019-04-21T11:51:35.163Z,1018.92
2019-04-21T11:52:34.759Z,1018.88
2019-04-21T11:53:34.866Z,1018.87
2019-04-21T11:54:35.067Z,1018.83
2019-04-21T11:55:39.184Z,1018.82
2019-04-21T11:56:34.814Z,1018.83
2019-04-21T11:57:38.303Z,1018.81
2019-04-21T11:58:34.285Z,1018.79
2019-04-21T11:59:35.478Z,1018.82
2019-04-21T12:00:35.740Z,1018.80
2019-04-21T12:01:34.406Z,1018.78
2019-04-21T12:02:35.326Z,1018.78
2019-04-21T12:03:35.746Z,1018.74
2019-04-21T12:04:35.695Z,1018.68
2019-04-21T12:05:35.231Z,1018.67
2019-04-21T12:06:40.924Z,1018.69
2019-04-21T12:07:35.369Z,1018.69
2019-04-21T12:08:40.439Z,1018.71
2019-04-21T12:09:35.439Z,1018.67
2019-04-21T12:10:35.536Z,1018.67
2019-04-21T12:11:35.673Z,1018.70
2019-04-21T12:12:35.115Z,1018.65
2019-04-21T12:13:36.112Z,1018.64
2019-04-21T12:14:36.265Z,1018.62
2019-04-21T12:15:34.970Z,1018.58
2019-04-21T12:16:35.245Z,1018.61
2019-04-21T12:17:36.122Z,1018.57
2019-04-21T12:18:35.088Z,1018.57
2019-04-21T12:19:35.137Z,1018.52
2019-04-21T12:20:35.543Z,1018.51
2019-04-21T12:21:50.584Z,1018.51
2019-04-21T12:22:35.706Z,1018.43
2019-04-21T12:23:36.418Z,1018.46
2019-04-21T12:24:36.822Z,1018.44
2019-04-21T12:25:36.766Z,1018.45
2019-04-21T12:26:35.942Z,1018.43
2019-04-21T12:27:36.060Z,1018.40
2019-04-21T12:28:35.494Z,1018.42
2019-04-21T12:29:35.633Z,1018.41
2019-04-21T12:30:35.777Z,1018.47
2019-04-21T12:31:35.897Z,1018.44
2019-04-21T12:32:35.979Z,1018.44
2019-04-21T12:33:36.230Z,1018.40
2019-04-21T12:34:36.245Z,1018.38
2019-04-21T12:35:35.776Z,1018.33
2019-04-21T12:36:35.885Z,1018.35
2019-04-21T12:37:37.084Z,1018.36
2019-04-21T12:38:46.225Z,1018.37
2019-04-21T12:39:36.872Z,1018.30
2019-04-21T12:40:36.730Z,1018.24
2019-04-21T12:41:36.277Z,1018.24
2019-04-21T12:42:38.718Z,1018.22
2019-04-21T12:43:36.969Z,1018.18
2019-04-21T12:44:37.164Z,1018.17
2019-04-21T12:45:36.175Z,1018.14
2019-04-21T12:46:36.218Z,1018.12
2019-04-21T12:47:37.658Z,1018.16
2019-04-21T12:48:36.298Z,1018.14
2019-04-21T12:49:36.338Z,1018.16
2019-04-21T12:50:36.385Z,1018.16
2019-04-21T12:51:37.695Z,1018.13
2019-04-21T12:52:37.722Z,1018.10
2019-04-21T12:53:36.500Z,1018.09
2019-04-21T12:54:37.670Z,1018.04
2019-04-21T12:55:40.517Z,1018.08
2019-04-21T12:56:37.595Z,1018.09
2019-04-21T12:57:37.231Z,1018.05
2019-04-21T12:58:37.384Z,1018.04
2019-04-21T12:59:37.827Z,1018.03
2019-04-21T13:00:36.904Z,1018.02
2019-04-21T13:01:37.053Z,1018.00
2019-04-21T13:02:37.926Z,1017.94
2019-04-21T13:03:37.613Z,1017.89
2019-04-21T13:04:37.860Z,1017.90
2019-04-21T13:05:37.891Z,1017.92
2019-04-21T13:06:37.339Z,1017.90
2019-04-21T13:07:37.393Z,1017.85
2019-04-21T13:08:45.622Z,1017.87
2019-04-21T13:09:37.563Z,1017.86
2019-04-21T13:10:38.103Z,1017.81
2019-04-21T13:11:37.341Z,1017.81
2019-04-21T13:12:37.970Z,1017.83
2019-04-21T13:13:37.729Z,1017.80
2019-04-21T13:14:37.892Z,1017.74
2019-04-21T13:15:37.676Z,1017.75
2019-04-21T13:16:37.432Z,1017.76
2019-04-21T13:17:37.483Z,1017.71
2019-04-21T13:18:37.513Z,1017.73
2019-04-21T13:19:38.957Z,1017.74
2019-04-21T13:20:38.180Z,1017.72
2019-04-21T13:21:38.144Z,1017.73